Time;durP1;ratioP1;P1;durP2;ratioP2;P2;SDS_P1;SDS_P2;PMS_P1;PMS_P2;Temp;Humidity;BMP_temperature;BMP_pressure;BME280_temperature;BME280_humidity;BME280_pressure;Samples;Min_cycle;Max_cycle;Signal;HPM_P1;HPM_P2
2021/08/22 00:02:16;;;;;;;11.05;10.18;;;22.60;82.50;;;;;;4190581;28;20150;-61
2021/08/22 00:04:38;;;;;;;11.52;10.52;;;22.60;82.50;;;;;;4192356;28;20452;-61
2021/08/22 00:07:01;;;;;;;10.88;9.80;;;22.60;82.50;;;;;;4190987;28;20051;-61
2021/08/22 00:09:23;;;;;;;11.60;10.65;;;22.60;82.60;;;;;;4190453;28;20410;-61
2021/08/22 00:11:45;;;;;;;10.52;9.65;;;22.60;82.60;;;;;;4201969;28;20063;-61
2021/08/22 00:14:08;;;;;;;10.68;9.68;;;22.60;82.50;;;;;;4191390;28;20041;-61
2021/08/22 00:16:30;;;;;;;11.43;10.52;;;22.60;82.30;;;;;;4190416;28;20048;-61
2021/08/22 00:18:52;;;;;;;10.52;9.48;;;22.60;82.30;;;;;;4204315;28;20139;-61
2021/08/22 00:21:15;;;;;;;10.73;9.80;;;22.60;82.20;;;;;;4210574;28;20483;-61
2021/08/22 00:23:37;;;;;;;10.57;9.73;;;22.60;82.20;;;;;;4210410;28;20055;-61
2021/08/22 00:26:00;;;;;;;11.02;10.13;;;22.60;81.90;;;;;;4210645;28;20068;-61
2021/08/22 00:28:21;;;;;;;11.13;10.23;;;22.60;82.70;;;;;;4203745;28;20048;-61
2021/08/22 00:30:45;;;;;;;10.05;9.25;;;22.60;82.00;;;;;;4193419;28;20135;-61
2021/08/22 00:33:07;;;;;;;10.90;10.00;;;22.50;81.80;;;;;;4198503;28;20056;-60
2021/08/22 00:35:29;;;;;;;10.68;9.73;;;22.50;82.00;;;;;;4209914;28;20143;-60
2021/08/22 00:37:51;;;;;;;10.20;9.30;;;22.50;81.90;;;;;;4209577;28;20066;-60
2021/08/22 00:40:14;;;;;;;10.30;9.15;;;22.50;82.30;;;;;;4210257;28;20048;-61
2021/08/22 00:42:37;;;;;;;9.52;8.73;;;22.50;82.40;;;;;;4192152;28;20056;-60
2021/08/22 00:44:59;;;;;;;10.18;9.38;;;22.50;82.40;;;;;;4193335;28;20524;-60
2021/08/22 00:47:22;;;;;;;9.90;8.90;;;22.50;82.70;;;;;;4207011;28;20047;-60
2021/08/22 00:49:48;;;;;;;10.35;9.55;;;22.50;82.80;;;;;;4186411;28;20082;-61
2021/08/22 00:52:09;;;;;;;10.57;9.77;;;22.50;82.80;;;;;;4193258;28;20052;-61
2021/08/22 00:54:33;;;;;;;10.82;9.93;;;22.50;82.80;;;;;;4193260;28;20066;-61
2021/08/22 00:56:55;;;;;;;10.18;9.32;;;22.50;82.80;;;;;;4203392;28;20051;-62
2021/08/22 00:59:19;;;;;;;10.60;9.57;;;22.50;82.90;;;;;;4209903;28;20138;-61
2021/08/22 01:01:43;;;;;;;10.07;9.07;;;22.50;82.90;;;;;;4210069;28;20047;-61
2021/08/22 01:04:16;;;;;;;10.00;9.07;;;22.50;83.00;;;;;;4208293;28;20131;-61
2021/08/22 01:06:44;;;;;;;10.05;9.20;;;22.50;82.80;;;;;;4209858;28;20071;-61
2021/08/22 01:09:15;;;;;;;10.23;9.25;;;22.50;82.90;;;;;;4209713;28;20047;-60
2021/08/22 01:11:39;;;;;;;10.40;9.50;;;22.50;82.90;;;;;;4206778;28;20055;-60
2021/08/22 01:14:04;;;;;;;9.75;9.00;;;22.40;83.20;;;;;;4203385;28;20370;-60
2021/08/22 01:16:29;;;;;;;11.23;10.32;;;22.50;83.40;;;;;;4193066;28;20139;-61
2021/08/22 01:18:56;;;;;;;10.32;9.45;;;22.40;83.20;;;;;;4192376;28;20044;-61
2021/08/22 01:21:21;;;;;;;10.93;10.05;;;22.40;83.20;;;;;;4192652;28;20044;-60
2021/08/22 01:23:47;;;;;;;10.82;9.93;;;22.40;83.20;;;;;;4202423;28;20079;-60
2021/08/22 01:26:11;;;;;;;10.30;9.50;;;22.40;83.30;;;;;;4209322;28;20055;-60
2021/08/22 01:28:33;;;;;;;11.57;10.68;;;22.40;83.30;;;;;;4208680;28;20048;-60
2021/08/22 01:30:59;;;;;;;10.05;9.25;;;22.40;83.90;;;;;;4209159;28;20060;-61
2021/08/22 01:33:23;;;;;;;11.80;10.75;;;22.40;83.40;;;;;;4200028;28;20560;-61
2021/08/22 01:35:46;;;;;;;10.70;9.73;;;22.40;83.30;;;;;;4192573;28;20067;-60
2021/08/22 01:38:09;;;;;;;11.50;10.32;;;22.40;83.40;;;;;;4192697;28;20052;-60
2021/08/22 01:40:32;;;;;;;10.38;9.48;;;22.40;83.40;;;;;;4192176;28;20139;-59
2021/08/22 01:42:55;;;;;;;11.20;10.27;;;22.40;83.60;;;;;;4195912;28;20553;-60
2021/08/22 01:45:20;;;;;;;11.23;10.18;;;22.40;83.60;;;;;;4209235;28;20052;-60
2021/08/22 01:47:44;;;;;;;10.98;10.07;;;22.40;83.40;;;;;;4209048;28;20048;-60
2021/08/22 01:50:11;;;;;;;11.00;10.00;;;22.40;83.40;;;;;;4200625;28;20056;-60
2021/08/22 01:52:34;;;;;;;11.98;11.00;;;22.40;83.40;;;;;;4194722;28;20110;-61
2021/08/22 01:54:56;;;;;;;10.40;9.50;;;22.40;83.30;;;;;;4209030;28;20418;-60
2021/08/22 01:57:18;;;;;;;10.70;9.80;;;22.40;83.60;;;;;;4209036;28;20101;-60
2021/08/22 01:59:41;;;;;;;11.13;10.23;;;22.40;83.70;;;;;;4204532;28;20050;-59
2021/08/22 02:02:04;;;;;;;10.50;9.60;;;22.40;83.80;;;;;;4175649;28;20132;-60
2021/08/22 02:04:34;;;;;;;11.95;10.95;;;22.40;83.80;;;;;;4159189;28;20049;-61
2021/08/22 02:07:03;;;;;;;10.95;10.05;;;22.40;83.90;;;;;;4159526;28;20089;-59
2021/08/22 02:09:34;;;;;;;11.15;10.23;;;22.40;83.90;;;;;;4160798;28;20046;-61
2021/08/22 02:12:01;;;;;;;11.85;10.85;;;22.40;83.90;;;;;;4175164;28;20056;-60
2021/08/22 02:14:26;;;;;;;10.35;9.45;;;22.40;84.00;;;;;;4175709;28;20122;-60
2021/08/22 02:16:50;;;;;;;10.48;9.48;;;22.30;83.90;;;;;;4175386;28;20037;-59
2021/08/22 02:19:13;;;;;;;10.88;9.88;;;22.30;84.00;;;;;;4174961;28;20164;-60
2021/08/22 02:21:35;;;;;;;10.65;9.70;;;22.30;84.00;;;;;;4175385;28;20076;-59
2021/08/22 02:23:59;;;;;;;10.68;9.65;;;22.30;83.90;;;;;;4175439;28;20044;-59
2021/08/22 02:26:22;;;;;;;10.35;9.45;;;22.30;83.90;;;;;;4175637;28;20467;-60
2021/08/22 02:28:44;;;;;;;11.43;10.35;;;22.30;84.10;;;;;;4203444;28;20131;-61
2021/08/22 02:31:06;;;;;;;11.13;10.13;;;22.30;84.10;;;;;;4208461;28;20067;-60
2021/08/22 02:33:30;;;;;;;11.10;10.10;;;22.30;84.10;;;;;;4208099;28;20093;-60
2021/08/22 02:35:52;;;;;;;10.75;9.75;;;22.30;84.80;;;;;;4208781;28;20138;-60
2021/08/22 02:38:14;;;;;;;9.60;8.73;;;22.30;84.20;;;;;;4207960;28;20071;-61
2021/08/22 02:40:37;;;;;;;10.02;9.30;;;22.30;84.30;;;;;;4207712;28;20573;-61
2021/08/22 02:43:00;;;;;;;11.68;10.68;;;22.30;84.40;;;;;;4208473;28;20052;-60
2021/08/22 02:45:22;;;;;;;10.27;9.38;;;22.30;84.50;;;;;;4208471;28;20068;-61
2021/08/22 02:47:46;;;;;;;11.40;10.48;;;22.30;84.60;;;;;;4201261;28;20615;-61
2021/08/22 02:50:09;;;;;;;10.82;9.82;;;22.30;84.50;;;;;;4194179;28;20051;-60
2021/08/22 02:52:31;;;;;;;12.30;11.20;;;22.30;84.50;;;;;;4191675;28;20059;-61
2021/08/22 02:54:53;;;;;;;11.90;10.80;;;22.30;84.30;;;;;;4191543;28;20079;-60
2021/08/22 02:57:18;;;;;;;12.18;11.18;;;22.30;84.30;;;;;;4193418;28;20057;-61
2021/08/22 02:59:40;;;;;;;11.57;10.68;;;22.30;84.10;;;;;;4207969;28;20074;-61
2021/08/22 03:02:02;;;;;;;11.95;10.95;;;22.30;84.30;;;;;;4207179;28;20052;-60
2021/08/22 03:04:24;;;;;;;11.18;10.05;;;22.30;84.50;;;;;;4208075;28;20048;-60
2021/08/22 03:06:46;;;;;;;12.02;11.13;;;22.30;84.50;;;;;;4207453;28;20048;-60
2021/08/22 03:09:08;;;;;;;10.88;10.05;;;22.30;84.30;;;;;;4191415;28;20048;-60
2021/08/22 03:11:31;;;;;;;11.05;10.15;;;22.30;85.20;;;;;;4191261;28;20048;-60
2021/08/22 03:13:55;;;;;;;10.80;9.93;;;22.30;84.50;;;;;;4191484;28;20060;-60
2021/08/22 03:16:16;;;;;;;12.10;11.07;;;22.30;84.50;;;;;;4191295;28;20043;-60
2021/08/22 03:18:39;;;;;;;12.23;11.20;;;22.30;84.20;;;;;;4191038;28;20041;-61
2021/08/22 03:21:01;;;;;;;11.77;10.77;;;22.30;84.20;;;;;;4191087;28;20448;-59
2021/08/22 03:23:23;;;;;;;14.25;10.77;;;22.30;84.30;;;;;;4191121;28;20143;-60
2021/08/22 03:25:45;;;;;;;10.88;9.98;;;22.30;84.40;;;;;;4207941;28;20043;-60
2021/08/22 03:28:07;;;;;;;11.82;10.85;;;22.30;84.60;;;;;;4207817;28;20044;-60
2021/08/22 03:30:31;;;;;;;11.50;10.60;;;22.30;84.70;;;;;;4207885;28;20036;-60
2021/08/22 03:32:54;;;;;;;11.05;9.40;;;22.30;84.70;;;;;;4206530;28;20101;-60
2021/08/22 03:35:16;;;;;;;9.55;8.80;;;22.30;84.70;;;;;;4208075;28;20052;-60
2021/08/22 03:37:38;;;;;;;10.57;9.65;;;22.30;84.90;;;;;;4207942;28;20044;-60
2021/08/22 03:40:01;;;;;;;10.55;9.70;;;22.30;84.90;;;;;;4199211;28;20067;-60
2021/08/22 03:42:23;;;;;;;11.45;10.52;;;22.30;85.00;;;;;;4195826;28;20044;-59
2021/08/22 03:44:45;;;;;;;11.32;10.30;;;22.30;85.00;;;;;;4207922;28;20058;-60
2021/08/22 03:47:08;;;;;;;11.30;10.30;;;22.30;85.00;;;;;;4207226;28;20059;-60
2021/08/22 03:49:30;;;;;;;11.15;10.25;;;22.30;85.00;;;;;;4207831;28;20054;-60
2021/08/22 03:51:52;;;;;;;11.52;10.63;;;22.30;85.00;;;;;;4208086;28;20070;-60
2021/08/22 03:54:14;;;;;;;12.27;11.18;;;22.20;84.90;;;;;;4183395;28;20056;-60
2021/08/22 03:56:36;;;;;;;12.73;11.63;;;22.30;85.00;;;;;;4210532;28;20052;-60
2021/08/22 03:58:58;;;;;;;12.15;11.05;;;22.30;85.10;;;;;;4208976;28;20490;-59
2021/08/22 04:01:20;;;;;;;12.45;11.30;;;22.30;85.20;;;;;;4194452;28;20410;-60
2021/08/22 04:03:56;;;;;;;12.45;11.25;;;22.30;85.30;;;;;;4159452;28;20492;-60
2021/08/22 04:06:48;;;;;;;12.60;11.40;;;22.30;85.40;;;;;;4160957;28;20053;-59
2021/08/22 04:09:12;;;;;;;12.65;11.55;;;22.20;85.40;;;;;;4161136;28;20064;-60
2021/08/22 04:11:34;;;;;;;12.13;11.13;;;22.20;85.40;;;;;;4167788;28;20052;-60
2021/08/22 04:13:57;;;;;;;11.45;10.45;;;22.20;85.40;;;;;;4177557;28;20099;-60
2021/08/22 04:16:19;;;;;;;12.95;11.68;;;22.20;85.30;;;;;;4177595;28;20068;-61
2021/08/22 04:18:41;;;;;;;11.73;10.63;;;22.20;85.30;;;;;;4177441;28;20061;-61
2021/08/22 04:21:06;;;;;;;12.02;10.55;;;22.20;85.30;;;;;;4179526;28;20480;-60
2021/08/22 04:23:29;;;;;;;11.82;10.82;;;22.20;85.40;;;;;;4194003;28;20052;-61
2021/08/22 04:25:52;;;;;;;12.23;11.27;;;22.20;85.50;;;;;;4193787;28;20580;-61
2021/08/22 04:28:14;;;;;;;12.07;11.07;;;22.20;85.50;;;;;;4194000;28;20084;-61
2021/08/22 04:30:36;;;;;;;12.80;11.68;;;22.20;85.60;;;;;;4193815;28;20041;-59
2021/08/22 04:32:58;;;;;;;11.13;10.23;;;22.20;85.60;;;;;;4187855;28;20413;-60
2021/08/22 04:35:21;;;;;;;12.55;11.55;;;22.20;85.60;;;;;;4210585;28;20075;-60
2021/08/22 04:37:44;;;;;;;11.70;10.70;;;22.20;85.60;;;;;;4210545;28;20048;-59
2021/08/22 04:40:08;;;;;;;11.25;10.30;;;22.20;85.50;;;;;;4210421;28;20051;-60
2021/08/22 04:42:29;;;;;;;11.98;10.85;;;22.20;85.60;;;;;;4206328;28;20080;-60
2021/08/22 04:44:52;;;;;;;12.25;11.05;;;22.20;85.70;;;;;;4193208;28;20410;-60
2021/08/22 04:47:14;;;;;;;12.27;11.00;;;22.20;85.80;;;;;;4193415;28;20074;-60
2021/08/22 04:49:36;;;;;;;11.10;10.20;;;22.20;85.80;;;;;;4193487;28;20569;-60
2021/08/22 04:51:58;;;;;;;10.95;9.98;;;22.20;85.80;;;;;;4193238;28;20481;-60
2021/08/22 04:54:23;;;;;;;11.43;10.43;;;22.20;85.70;;;;;;4197201;28;20040;-60
2021/08/22 04:56:45;;;;;;;11.82;10.55;;;22.20;85.60;;;;;;4184509;28;20041;-60
2021/08/22 04:59:07;;;;;;;11.27;10.30;;;22.20;85.70;;;;;;4193153;28;20040;-60
2021/08/22 05:01:29;;;;;;;11.45;10.45;;;22.10;85.70;;;;;;4197661;28;20134;-60
2021/08/22 05:03:51;;;;;;;12.38;10.25;;;22.20;85.80;;;;;;4192662;28;20158;-59
2021/08/22 05:06:13;;;;;;;11.05;10.05;;;22.10;85.90;;;;;;4193381;28;20052;-60
2021/08/22 05:08:35;;;;;;;11.60;10.50;;;22.10;85.70;;;;;;4193374;28;20052;-60
2021/08/22 05:10:59;;;;;;;10.52;9.65;;;22.10;85.60;;;;;;4191772;28;20048;-61
2021/08/22 05:13:21;;;;;;;11.23;10.05;;;22.10;85.70;;;;;;4176633;28;20521;-61
2021/08/22 05:15:44;;;;;;;11.10;10.15;;;22.10;85.80;;;;;;4176477;28;20098;-61
2021/08/22 05:18:06;;;;;;;11.35;10.35;;;22.10;85.90;;;;;;4201737;28;20490;-61
2021/08/22 05:20:28;;;;;;;10.80;10.00;;;22.10;86.00;;;;;;4209845;28;20081;-60
2021/08/22 05:22:50;;;;;;;10.63;9.82;;;22.10;86.00;;;;;;4194728;28;20125;-60
2021/08/22 05:25:12;;;;;;;11.05;10.15;;;22.10;86.10;;;;;;4192589;28;20045;-61
2021/08/22 05:27:35;;;;;;;11.10;10.20;;;22.10;86.10;;;;;;4193034;28;20115;-61
2021/08/22 05:29:58;;;;;;;10.13;9.32;;;22.10;85.90;;;;;;4193008;28;20487;-61
2021/08/22 05:32:20;;;;;;;10.05;9.35;;;22.10;85.70;;;;;;4205116;28;20125;-60
2021/08/22 05:34:42;;;;;;;10.70;9.80;;;22.10;85.70;;;;;;4209628;28;20410;-61
2021/08/22 05:37:04;;;;;;;10.30;9.50;;;22.10;85.60;;;;;;4209140;28;20048;-60
2021/08/22 05:39:26;;;;;;;10.60;9.70;;;22.00;85.60;;;;;;4209423;28;20040;-60
2021/08/22 05:41:48;;;;;;;10.05;9.15;;;22.00;85.30;;;;;;4200737;28;20055;-59
2021/08/22 05:44:12;;;;;;;10.23;9.48;;;22.00;85.30;;;;;;4192524;28;20051;-60
2021/08/22 05:46:34;;;;;;;10.13;9.43;;;22.00;85.60;;;;;;4192598;28;20048;-60
2021/08/22 05:48:56;;;;;;;9.45;8.68;;;22.00;85.90;;;;;;4192529;28;20106;-60
2021/08/22 05:51:20;;;;;;;9.45;8.75;;;22.00;86.80;;;;;;4194580;28;20052;-60
2021/08/22 05:53:42;;;;;;;10.02;9.05;;;22.00;86.10;;;;;;4198624;28;20044;-60
2021/08/22 05:56:05;;;;;;;9.60;8.80;;;22.00;86.30;;;;;;4197117;28;20538;-60
2021/08/22 05:58:27;;;;;;;10.32;9.43;;;22.00;86.50;;;;;;4192367;28;20075;-60
2021/08/22 06:00:51;;;;;;;8.68;7.97;;;22.00;86.50;;;;;;4203952;28;20139;-60
2021/08/22 06:03:14;;;;;;;8.77;8.13;;;22.00;86.80;;;;;;4207785;28;20105;-60
2021/08/22 06:05:37;;;;;;;8.75;8.05;;;22.00;87.00;;;;;;4209283;28;20040;-61
2021/08/22 06:07:59;;;;;;;8.07;7.45;;;22.00;87.10;;;;;;4202894;28;20147;-60
2021/08/22 06:10:21;;;;;;;7.95;7.35;;;22.00;87.30;;;;;;4208090;28;20048;-60
2021/08/22 06:12:43;;;;;;;8.18;7.53;;;22.00;87.30;;;;;;4208232;28;20067;-60
2021/08/22 06:15:06;;;;;;;7.13;6.55;;;22.10;87.10;;;;;;4208324;28;20063;-60
2021/08/22 06:17:30;;;;;;;8.00;7.40;;;22.10;87.20;;;;;;4196260;28;20068;-61
2021/08/22 06:19:52;;;;;;;7.50;6.90;;;22.10;87.20;;;;;;4209030;28;20052;-62
2021/08/22 06:22:14;;;;;;;7.63;7.03;;;22.10;87.20;;;;;;4208625;28;20036;-61
2021/08/22 06:24:38;;;;;;;8.00;7.30;;;22.10;87.20;;;;;;4209069;28;20061;-61
2021/08/22 06:27:00;;;;;;;7.57;6.97;;;22.10;87.20;;;;;;4204190;28;20055;-61
2021/08/22 06:29:22;;;;;;;7.30;6.70;;;22.10;87.10;;;;;;4191796;28;20053;-61
2021/08/22 06:31:44;;;;;;;6.65;6.15;;;22.10;86.60;;;;;;4191802;28;20380;-60
2021/08/22 06:34:07;;;;;;;7.28;6.68;;;22.10;86.60;;;;;;4191370;28;20147;-61
2021/08/22 06:36:29;;;;;;;6.22;5.82;;;22.10;86.70;;;;;;4192075;28;20585;-61
2021/08/22 06:38:52;;;;;;;6.60;6.00;;;22.10;86.70;;;;;;4191606;28;20483;-60
2021/08/22 06:41:14;;;;;;;6.47;6.00;;;22.00;86.60;;;;;;4191926;28;20052;-60
2021/08/22 06:43:36;;;;;;;6.38;5.90;;;22.00;86.70;;;;;;4191628;28;20049;-61
2021/08/22 06:45:59;;;;;;;6.20;5.70;;;22.10;86.60;;;;;;4191632;28;20048;-61
2021/08/22 06:48:21;;;;;;;6.80;6.28;;;22.10;87.00;;;;;;4175165;28;20057;-61
2021/08/22 06:50:45;;;;;;;7.07;6.47;;;22.10;86.90;;;;;;4174905;28;20049;-61
2021/08/22 06:53:07;;;;;;;6.03;5.72;;;22.00;87.00;;;;;;4183842;28;20110;-61
2021/08/22 06:55:31;;;;;;;7.55;6.15;;;22.00;87.10;;;;;;4191237;28;20143;-61
2021/08/22 06:57:53;;;;;;;7.22;6.45;;;22.00;87.10;;;;;;4191029;28;20064;-61
2021/08/22 07:00:17;;;;;;;7.00;6.50;;;22.00;87.20;;;;;;4191276;28;20572;-61
2021/08/22 07:02:42;;;;;;;7.30;6.70;;;22.00;87.30;;;;;;4197725;28;20491;-61
2021/08/22 07:05:06;;;;;;;6.75;6.35;;;22.00;87.20;;;;;;4204745;28;20047;-61
2021/08/22 07:07:29;;;;;;;6.22;5.80;;;22.00;87.20;;;;;;4208316;28;20044;-60
2021/08/22 07:09:51;;;;;;;6.45;6.05;;;22.00;87.10;;;;;;4207999;28;20473;-61
2021/08/22 07:12:14;;;;;;;5.97;5.55;;;22.00;87.00;;;;;;4195947;28;20684;-61
2021/08/22 07:14:36;;;;;;;6.15;5.75;;;22.00;86.80;;;;;;4199366;28;20051;-61
2021/08/22 07:16:59;;;;;;;6.43;6.03;;;22.00;87.60;;;;;;4193787;28;20113;-62
2021/08/22 07:19:21;;;;;;;5.82;5.45;;;22.00;86.60;;;;;;4207991;28;20074;-61
2021/08/22 07:21:44;;;;;;;6.25;5.80;;;22.00;86.70;;;;;;4207756;28;20679;-61
2021/08/22 07:24:07;;;;;;;5.97;5.57;;;22.00;86.80;;;;;;4202966;28;20044;-62
2021/08/22 07:26:30;;;;;;;6.20;5.75;;;22.00;87.00;;;;;;4174416;28;20041;-61
2021/08/22 07:28:52;;;;;;;5.60;5.30;;;22.00;87.10;;;;;;4174503;28;20048;-60
2021/08/22 07:31:15;;;;;;;5.97;5.57;;;22.00;87.20;;;;;;4179555;28;20080;-61
2021/08/22 07:33:37;;;;;;;5.57;5.15;;;22.00;87.20;;;;;;4174844;28;20076;-63
2021/08/22 07:35:59;;;;;;;6.00;5.70;;;22.00;87.20;;;;;;4174571;28;20411;-62
2021/08/22 07:38:21;;;;;;;6.53;6.07;;;22.00;87.60;;;;;;4174155;28;20131;-60
2021/08/22 07:40:44;;;;;;;6.05;5.55;;;22.00;87.80;;;;;;4187215;28;20048;-62
2021/08/22 07:43:07;;;;;;;5.75;5.30;;;22.00;88.20;;;;;;4174429;28;20510;-62
2021/08/22 07:45:29;;;;;;;6.20;5.70;;;22.00;87.20;;;;;;4180164;28;20060;-62
2021/08/22 07:47:51;;;;;;;5.57;5.18;;;22.00;87.00;;;;;;4190700;28;20054;-62
2021/08/22 07:50:13;;;;;;;5.35;5.05;;;22.00;86.80;;;;;;4191127;28;20045;-61
2021/08/22 07:52:35;;;;;;;4.97;4.60;;;22.00;87.70;;;;;;4190826;28;20055;-61
2021/08/22 07:54:58;;;;;;;5.70;5.20;;;22.00;86.90;;;;;;4191115;28;20098;-59
2021/08/22 07:57:21;;;;;;;5.22;4.85;;;21.90;87.10;;;;;;4190829;28;20513;-59
2021/08/22 07:59:43;;;;;;;5.00;4.60;;;21.90;87.90;;;;;;4190905;28;20045;-60
2021/08/22 08:02:05;;;;;;;4.63;4.30;;;21.90;87.30;;;;;;4184199;28;20060;-61
2021/08/22 08:04:27;;;;;;;4.95;4.65;;;21.90;87.50;;;;;;4190462;28;20565;-60
2021/08/22 08:06:50;;;;;;;4.90;4.60;;;21.90;87.50;;;;;;4190530;28;20098;-60
2021/08/22 08:09:12;;;;;;;4.63;4.32;;;21.90;87.60;;;;;;4190687;28;20049;-61
2021/08/22 08:11:34;;;;;;;4.75;4.45;;;21.90;87.60;;;;;;4189737;28;20044;-59
2021/08/22 08:13:57;;;;;;;5.38;4.97;;;21.90;88.60;;;;;;4190733;28;20053;-61
2021/08/22 08:16:19;;;;;;;5.18;4.80;;;21.90;88.10;;;;;;4190633;28;20072;-62
2021/08/22 08:18:41;;;;;;;4.85;4.47;;;21.90;88.10;;;;;;4190816;28;20695;-62
2021/08/22 08:21:04;;;;;;;4.40;4.20;;;21.90;88.20;;;;;;4190346;28;20143;-61
2021/08/22 08:23:27;;;;;;;4.75;4.55;;;21.90;88.30;;;;;;4188853;28;20053;-62
2021/08/22 08:25:52;;;;;;;4.70;4.40;;;21.90;88.30;;;;;;4190628;28;20049;-60
2021/08/22 08:28:14;;;;;;;4.00;3.80;;;21.90;88.30;;;;;;4174123;28;20033;-60
2021/08/22 08:30:38;;;;;;;4.90;4.63;;;21.90;88.30;;;;;;4174302;28;20481;-60
2021/08/22 08:33:00;;;;;;;4.30;4.00;;;21.80;88.40;;;;;;4193993;28;20063;-60
2021/08/22 08:35:22;;;;;;;4.57;4.18;;;21.80;88.50;;;;;;4193166;28;20052;-59
2021/08/22 08:37:44;;;;;;;4.82;4.47;;;21.80;88.60;;;;;;4191217;28;20118;-60
2021/08/22 08:40:07;;;;;;;5.05;4.60;;;21.80;89.60;;;;;;4193518;28;20041;-60
2021/08/22 08:42:32;;;;;;;4.22;4.03;;;21.80;88.70;;;;;;4193953;28;20040;-61
2021/08/22 08:44:54;;;;;;;4.40;4.20;;;21.80;88.80;;;;;;4177078;28;20076;-61
2021/08/22 08:47:18;;;;;;;4.00;3.80;;;21.90;88.80;;;;;;4188857;28;20060;-62
2021/08/22 08:49:42;;;;;;;4.15;3.95;;;21.90;88.90;;;;;;4178189;28;20116;-61
2021/08/22 08:52:06;;;;;;;3.78;3.58;;;21.90;88.90;;;;;;4197176;28;20055;-61
2021/08/22 08:54:29;;;;;;;3.95;3.75;;;21.80;88.90;;;;;;4210339;28;20046;-61
2021/08/22 08:56:51;;;;;;;3.90;3.70;;;21.80;89.80;;;;;;4210154;28;20052;-61
2021/08/22 08:59:13;;;;;;;4.30;4.10;;;21.80;89.00;;;;;;4209785;28;20048;-60
2021/08/22 09:01:37;;;;;;;4.38;4.13;;;21.80;89.00;;;;;;4201601;28;20052;-61
2021/08/22 09:04:15;;;;;;;4.18;3.97;;;21.80;89.10;;;;;;4192989;28;20055;-61
2021/08/22 09:07:17;;;;;;;3.75;3.55;;;21.80;89.40;;;;;;4192983;28;20483;-61
2021/08/22 09:10:09;;;;;;;;;;;21.80;89.30;;;;;;4193462;28;20052;-61
2021/08/22 09:13:19;;;;;;;4.22;4.03;;;21.80;89.10;;;;;;4129321;28;20292;-61
2021/08/22 09:16:22;;;;;;;4.28;4.07;;;21.80;89.40;;;;;;4204527;28;20521;-62
2021/08/22 09:19:38;;;;;;;4.47;4.28;;;21.80;89.40;;;;;;4209377;28;20070;-62
2021/08/22 09:22:34;;;;;;;4.75;4.45;;;21.80;89.50;;;;;;4209457;28;20059;-61
2021/08/22 09:28:33;;;;;;;5.33;4.93;;;21.80;89.70;;;;;;4206506;27;20905;-60
2021/08/22 09:31:33;;;;;;;5.80;5.50;;;21.80;90.10;;;;;;4192126;28;20036;-61
2021/08/22 09:34:43;;;;;;;5.63;5.22;;;21.80;90.30;;;;;;4205399;28;20052;-60
2021/08/22 09:38:06;;;;;;;6.28;5.88;;;21.80;90.50;;;;;;4205417;28;20036;-60
2021/08/22 09:41:05;;;;;;;7.72;7.13;;;21.80;90.30;;;;;;4153341;28;20050;-60
2021/08/22 09:44:10;;;;;;;9.20;8.50;;;21.80;90.50;;;;;;4152684;28;20045;-59
2021/08/22 09:47:24;;;;;;;8.55;7.95;;;21.90;91.10;;;;;;4205827;27;20044;-60
2021/08/22 09:50:23;;;;;;;8.80;7.90;;;21.90;91.00;;;;;;4188398;28;20125;-60
2021/08/22 09:53:21;;;;;;;9.77;8.98;;;21.90;90.70;;;;;;4188746;28;20052;-60
2021/08/22 09:56:23;;;;;;;10.48;9.68;;;21.90;91.10;;;;;;4188289;28;20083;-60
2021/08/22 09:59:20;;;;;;;10.77;9.80;;;21.90;91.10;;;;;;4187361;28;20053;-59
2021/08/22 10:02:31;;;;;;;10.95;10.02;;;21.90;91.40;;;;;;4212109;27;20058;-60
2021/08/22 10:05:13;;;;;;;9.15;8.45;;;21.90;91.00;;;;;;4185744;28;20059;-59
2021/08/22 10:08:11;;;;;;;10.20;9.38;;;21.90;90.70;;;;;;4221632;27;20093;-60
2021/08/22 10:10:36;;;;;;;10.93;9.93;;;21.90;90.70;;;;;;4208857;27;20059;-59
2021/08/22 10:12:59;;;;;;;10.27;9.30;;;21.90;90.60;;;;;;4218218;27;20427;-60
2021/08/22 10:15:23;;;;;;;11.50;10.55;;;21.90;90.50;;;;;;4199597;27;20523;-59
2021/08/22 10:17:46;;;;;;;12.05;11.05;;;22.00;90.60;;;;;;4205170;28;20036;-60
2021/08/22 10:20:09;;;;;;;11.45;10.57;;;22.00;91.10;;;;;;4205067;28;20413;-60
2021/08/22 10:22:35;;;;;;;11.10;10.10;;;22.00;90.90;;;;;;4204888;28;20454;-59
2021/08/22 10:25:00;;;;;;;11.43;10.52;;;22.00;90.70;;;;;;4215818;27;20550;-61
2021/08/22 10:27:49;;;;;;;12.23;11.13;;;22.00;90.70;;;;;;4204349;28;20059;-61
2021/08/22 10:30:13;;;;;;;12.50;11.50;;;22.00;90.70;;;;;;4204570;28;20044;-61
2021/08/22 10:32:55;;;;;;;11.65;10.73;;;22.00;90.70;;;;;;4187772;28;20041;-61
2021/08/22 10:35:22;;;;;;;11.38;10.27;;;22.00;91.00;;;;;;4187754;28;20500;-61
2021/08/22 10:37:44;;;;;;;11.13;10.23;;;22.00;90.80;;;;;;4184060;28;20472;-61
2021/08/22 10:40:35;;;;;;;11.35;10.35;;;22.00;90.90;;;;;;4177043;28;20491;-62
2021/08/22 10:43:35;;;;;;;8.57;7.97;;;22.00;91.00;;;;;;4194699;28;20924;-61
2021/08/22 10:45:57;;;;;;;8.63;7.93;;;22.00;90.70;;;;;;4187199;28;20049;-60
2021/08/22 10:48:50;;;;;;;8.00;7.40;;;22.00;90.40;;;;;;4193326;28;20676;-60
2021/08/22 10:51:12;;;;;;;7.55;6.95;;;22.00;90.80;;;;;;4200222;27;20048;-61
2021/08/22 10:53:36;;;;;;;7.78;7.18;;;22.00;90.70;;;;;;4202109;27;20056;-61
2021/08/22 10:55:59;;;;;;;6.63;6.22;;;22.00;90.60;;;;;;4190982;28;20060;-61
2021/08/22 10:59:01;;;;;;;6.15;5.75;;;22.10;90.70;;;;;;4192845;28;20053;-61
2021/08/22 11:01:26;;;;;;;6.47;6.07;;;22.10;90.70;;;;;;4193326;28;20090;-60
2021/08/22 11:04:01;;;;;;;6.50;5.90;;;22.10;91.00;;;;;;4193375;28;20143;-63
2021/08/22 11:06:24;;;;;;;6.47;5.95;;;22.10;90.90;;;;;;4192957;28;20475;-61
2021/08/22 11:08:46;;;;;;;5.65;5.35;;;22.10;90.70;;;;;;4193308;28;20486;-61
2021/08/22 11:11:08;;;;;;;5.15;4.85;;;22.20;90.80;;;;;;4193010;28;20075;-62
2021/08/22 11:13:31;;;;;;;4.32;4.05;;;22.20;91.10;;;;;;4193085;28;20048;-62
2021/08/22 11:15:53;;;;;;;5.15;4.82;;;22.20;91.00;;;;;;4198971;28;20112;-61
2021/08/22 11:18:18;;;;;;;3.35;3.25;;;22.20;91.20;;;;;;4198833;28;20037;-61
2021/08/22 11:20:43;;;;;;;3.25;3.15;;;22.20;90.80;;;;;;4192817;28;20494;-61
2021/08/22 11:23:06;;;;;;;3.85;3.55;;;22.30;90.80;;;;;;4192694;28;20059;-61
2021/08/22 11:25:28;;;;;;;3.28;3.17;;;22.20;90.80;;;;;;4194241;28;20441;-61
2021/08/22 11:27:53;;;;;;;3.42;3.28;;;22.30;91.10;;;;;;4209483;28;20508;-61
2021/08/22 11:30:15;;;;;;;3.42;3.22;;;22.40;91.20;;;;;;4209097;28;20048;-61
2021/08/22 11:32:38;;;;;;;3.15;2.95;;;22.30;91.10;;;;;;4209407;28;20050;-61
2021/08/22 11:35:13;;;;;;;3.78;3.58;;;22.40;90.90;;;;;;4209382;28;20044;-61
2021/08/22 11:37:35;;;;;;;3.88;3.58;;;22.40;90.70;;;;;;4208015;28;20044;-62
2021/08/22 11:40:04;;;;;;;3.15;2.95;;;22.50;90.80;;;;;;4209388;28;20055;-62
2021/08/22 11:42:27;;;;;;;2.97;2.88;;;22.50;90.50;;;;;;4209229;28;20056;-63
2021/08/22 11:44:50;;;;;;;3.28;3.17;;;22.50;90.30;;;;;;4209012;28;20147;-62
2021/08/22 11:47:12;;;;;;;3.10;3.00;;;22.50;90.30;;;;;;4208759;28;20055;-62
2021/08/22 11:49:34;;;;;;;3.25;3.10;;;22.50;90.20;;;;;;4191377;28;20060;-62
2021/08/22 11:51:58;;;;;;;3.60;3.40;;;22.60;90.10;;;;;;4193553;28;20055;-63
2021/08/22 11:54:22;;;;;;;3.47;3.28;;;22.60;90.20;;;;;;4182063;28;20051;-63
2021/08/22 11:56:44;;;;;;;3.10;2.90;;;22.60;89.80;;;;;;4192257;28;20418;-63
2021/08/22 11:59:23;;;;;;;3.60;3.28;;;22.60;89.90;;;;;;4191968;28;20130;-63
2021/08/22 12:01:45;;;;;;;3.55;3.35;;;22.60;90.00;;;;;;4191996;28;20473;-61
2021/08/22 12:04:07;;;;;;;3.38;3.17;;;22.60;90.10;;;;;;4175644;28;20518;-61
2021/08/22 12:06:30;;;;;;;3.50;3.30;;;22.60;89.70;;;;;;4202286;28;20044;-61
2021/08/22 12:08:54;;;;;;;3.40;3.30;;;22.60;89.80;;;;;;4206877;28;20048;-61
2021/08/22 12:11:17;;;;;;;3.70;3.60;;;22.50;89.70;;;;;;4183479;28;20565;-61
2021/08/22 12:13:41;;;;;;;4.50;3.65;;;22.60;89.80;;;;;;4191977;28;20051;-61
2021/08/22 12:16:22;;;;;;;3.15;2.92;;;22.60;90.00;;;;;;4192173;28;20056;-63
2021/08/22 12:18:44;;;;;;;3.30;3.20;;;22.50;89.90;;;;;;4191721;28;20433;-62
2021/08/22 12:21:18;;;;;;;3.78;3.58;;;22.50;89.60;;;;;;4191905;28;20040;-62
2021/08/22 12:23:40;;;;;;;3.00;2.80;;;22.50;90.00;;;;;;4178127;28;20044;-62
2021/08/22 12:26:21;;;;;;;3.83;3.55;;;22.60;89.70;;;;;;4191635;28;20068;-62
2021/08/22 12:28:43;;;;;;;3.83;3.63;;;22.50;89.90;;;;;;4191252;28;20460;-62
2021/08/22 12:31:08;;;;;;;4.10;3.88;;;22.50;89.60;;;;;;4201786;28;20048;-62
2021/08/22 12:33:31;;;;;;;4.85;4.55;;;22.60;89.60;;;;;;4200932;28;20132;-61
2021/08/22 12:36:02;;;;;;;3.45;3.28;;;22.50;89.70;;;;;;4208418;28;20146;-62
2021/08/22 12:38:34;;;;;;;3.25;3.10;;;22.60;90.00;;;;;;4208117;28;20070;-62